Flight Track Log - Related Links

Times and Time Zones

All times are in EDT time to prevent confusion due to time zone crossing. See the KAP528 flight status page for this flight to view local times or setup timezone preferences in your user account.

Time Position Orientation Groundspeed Altitude Reporting Facility
EDT Latitude Longitude Course Direction KTS MPH feet Rate Location/Type
Fri 06:50:52 PM 43.4583 -72.8864 148° Southeast 155 178 5,500  Level Boston Center
Fri 06:51:52 PM 43.4314 -72.8347 126° Southeast 155 178 5,600 50 Climbing Boston Center
Fri 06:52:52 PM 43.4003 -72.7803 128° Southeast 172 198 5,600  Level Boston Center
Fri 06:53:52 PM 43.3692 -72.7256 128° Southeast 178 205 5,600 -45 Level Boston Center
Fri 06:55:04 PM 43.3381 -72.6600 123° Southeast 178 205 5,500  Descending Boston Center
Fri 06:56:04 PM 43.3047 -72.6056 130° Southeast 178 205 5,600 50 Climbing Boston Center
Fri 06:57:04 PM 43.2756 -72.5483 125° Southeast 178 205 5,600  Level Boston Center
Fri 06:58:04 PM 43.2422 -72.4942 130° Southeast 178 205 5,600 -50 Level Boston Center
Fri 06:59:04 PM 43.2111 -72.4431 130° Southeast 183 211 5,500 -50 Descending Boston Center
Fri 07:00:04 PM 43.1797 -72.3861 127° Southeast 183 211 5,500 50 Level Boston Center
Fri 07:01:04 PM 43.1506 -72.3319 126° Southeast 183 211 5,600 50 Climbing Boston Center
Fri 07:02:04 PM 43.1192 -72.2781 129° Southeast 188 216 5,600  Level Boston Center
Fri 07:03:04 PM 43.0881 -72.2297 131° Southeast 182 209 5,600 -50 Level Boston Center
Fri 07:04:04 PM 43.0525 -72.1731 131° Southeast 182 209 5,500 -50 Descending Boston Center
Fri 07:05:04 PM 43.0231 -72.1278 132° Southeast 182 209 5,500  Level Boston Center
Fri 07:06:04 PM 42.9897 -72.0683 127° Southeast 188 216 5,500  Level Boston Center
Fri 07:07:04 PM 42.9622 -72.0203 128° Southeast 183 211 5,500 -45 Level Boston Center
Fri 07:08:16 PM 42.9267 -71.9722 135° Southeast 178 205 5,400  Descending Boston Center
Fri 07:09:16 PM 42.8931 -71.9103 127° Southeast 173 199 5,500 50 Climbing Boston Center
Fri 07:10:16 PM 42.8825 -71.8536 104° East 167 192 5,500 -150 Level Boston Center
Fri 07:11:16 PM 42.8717 -71.7800 101° East 172 198 5,200 -250 Descending Boston Center
Fri 07:12:16 PM 42.8608 -71.7206 104° East 172 198 5,000 -100 Descending Boston Center
Fri 07:13:16 PM 42.8478 -71.6528 105° East 172 198 5,000  Level Boston Center
Fri 07:14:16 PM 42.8392 -71.5906 101° East 172 198 5,000  Level Boston Center
Fri 07:15:16 PM 42.8261 -71.5228 105° East 172 198 5,000  Level Boston Center
Fri 07:16:16 PM 42.8172 -71.4636 102° East 172 198 5,000  Level Boston Center
Fri 07:17:16 PM 42.8019 -71.3958 107° East 172 198 5,000 -50 Level Boston Center
Fri 07:18:16 PM 42.7911 -71.3367 104° East 172 198 4,900 38 Descending Boston Center
Fri 07:19:54 PM 42.7167 -71.2667 145° Southeast 168 193 5,100 76 Climbing KA90
Fri 07:20:54 PM 42.6833 -71.2333 144° Southeast 167 192 5,100  Level KA90
Fri 07:21:54 PM 42.6333 -71.2167 166° South 169 194 5,100 -50 Level KA90
Fri 07:22:54 PM 42.6000 -71.1833 144° Southeast 168 193 5,000  Descending KA90
Fri 07:23:54 PM 42.5667 -71.1500 144° Southeast 168 193 5,100 50 Climbing KA90
Fri 07:24:54 PM 42.5167 -71.1333 166° South 167 192 5,100  Level KA90
Fri 07:25:54 PM 42.4667 -71.1333 180° South 167 192 5,100 -50 Level KA90
Fri 07:26:54 PM 42.4167 -71.1333 180° South 167 192 5,000 -250 Descending KA90
Fri 07:27:54 PM 42.3833 -71.1500 200° South 166 191 4,600 -550 Descending KA90
Fri 07:28:54 PM 42.3333 -71.1667 194° South 166 191 3,900 -650 Descending KA90
Fri 07:29:54 PM 42.3000 -71.1833 200° South 175 201 3,300 -800 Descending KA90
Fri 07:30:54 PM 42.3000 -71.1167 90° East 178 205 2,300 -1,050 Descending KA90
Fri 07:31:54 PM 42.3333 -71.0667 48° Northeast 166 191 1,200 -950 Descending KA90
Fri 07:32:54 PM 42.3500 -71.0167 66° East 130 150 400 -800 Descending KA90
Fri 07:34:00 PM 42.3500 -71.0000 70° East  Level FlightAware Approximate
Fri 07:41:00 PM 42.3630 -71.0064 70° East  Level Estimated

Login

Don't have an account? Register now (free) for customized features, flight alerts, and more!